Time;durP1;ratioP1;P1;durP2;ratioP2;P2;SDS_P1;SDS_P2;PMS_P1;PMS_P2;Temp;Humidity;BMP_temperature;BMP_pressure;BME280_temperature;BME280_humidity;BME280_pressure;Samples;Min_cycle;Max_cycle;Signal;HPM_P1;HPM_P2
2023/08/18 00:01:06;;;;;;;9.73;8.93;;;23.10;97.40;;;;;;5008174;28;20486;-72
2023/08/18 00:03:34;;;;;;;8.90;8.20;;;23.10;97.40;;;;;;5008732;28;20531;-72
2023/08/18 00:06:05;;;;;;;9.00;8.03;;;23.10;97.40;;;;;;5008376;28;20580;-72
2023/08/18 00:08:31;;;;;;;9.80;8.90;;;23.10;97.40;;;;;;4992202;28;20419;-73
2023/08/18 00:10:57;;;;;;;8.43;7.73;;;23.10;97.50;;;;;;5008086;28;20426;-72
2023/08/18 00:13:23;;;;;;;8.80;8.00;;;23.10;97.50;;;;;;5008049;28;20295;-72
2023/08/18 00:15:56;;;;;;;9.40;8.50;;;23.10;97.50;;;;;;5008275;28;20447;-72
2023/08/18 00:18:22;;;;;;;9.53;8.67;;;23.10;97.40;;;;;;5008224;28;20950;-72
2023/08/18 00:20:54;;;;;;;9.43;8.53;;;23.10;97.40;;;;;;5026245;28;21239;-72
2023/08/18 00:23:23;;;;;;;9.47;7.70;;;23.10;97.50;;;;;;5026307;28;20435;-72
2023/08/18 00:25:49;;;;;;;8.60;7.90;;;23.10;97.50;;;;;;5025657;28;20435;-72
2023/08/18 00:28:15;;;;;;;7.90;7.20;;;23.10;97.50;;;;;;5007780;28;20527;-72
2023/08/18 00:30:47;;;;;;;7.43;6.83;;;23.10;97.60;;;;;;5021812;28;20463;-72
2023/08/18 00:33:14;;;;;;;7.50;6.90;;;23.00;97.40;;;;;;4955774;28;20455;-72
2023/08/18 00:35:40;;;;;;;9.13;7.80;;;23.00;97.50;;;;;;4988520;28;20436;-72
2023/08/18 00:38:09;;;;;;;8.70;8.00;;;23.00;97.50;;;;;;4972511;28;20518;-72
2023/08/18 00:40:39;;;;;;;8.10;7.30;;;23.00;97.50;;;;;;4987879;28;20455;-72
2023/08/18 00:43:08;;;;;;;8.50;7.80;;;23.00;97.50;;;;;;5013288;28;20501;-72
2023/08/18 00:45:37;;;;;;;7.90;7.30;;;23.00;97.50;;;;;;5025832;28;20431;-72
2023/08/18 00:48:03;;;;;;;9.00;8.10;;;23.00;97.50;;;;;;5006039;28;20415;-72
2023/08/18 00:50:32;;;;;;;8.20;7.00;;;23.00;97.50;;;;;;4971965;28;21070;-72
2023/08/18 00:53:03;;;;;;;7.50;6.90;;;23.00;97.50;;;;;;4988052;28;20444;-73
2023/08/18 00:55:32;;;;;;;7.13;6.57;;;23.00;97.50;;;;;;4971748;28;20432;-72
2023/08/18 00:58:00;;;;;;;8.63;7.73;;;23.00;97.50;;;;;;4987655;28;20502;-72
2023/08/18 01:00:27;;;;;;;8.63;7.80;;;23.00;97.50;;;;;;4971855;28;20491;-72
2023/08/18 01:02:56;;;;;;;7.87;7.07;;;23.00;97.40;;;;;;5006491;28;21029;-72
2023/08/18 01:05:25;;;;;;;9.77;7.93;;;23.00;97.50;;;;;;5006986;28;20545;-72
2023/08/18 01:07:51;;;;;;;8.10;7.40;;;22.90;97.40;;;;;;4975174;28;20438;-72
2023/08/18 01:10:20;;;;;;;8.60;7.80;;;23.00;97.50;;;;;;5007720;28;20407;-72
2023/08/18 01:13:15;;;;;;;8.77;7.97;;;22.90;97.50;;;;;;5003858;28;20455;-73
2023/08/18 01:15:48;;;;;;;8.77;7.83;;;23.00;97.50;;;;;;4971662;28;20506;-72
2023/08/18 01:18:16;;;;;;;8.80;7.80;;;22.90;97.50;;;;;;4956151;28;20427;-72
2023/08/18 01:20:46;;;;;;;8.40;7.60;;;22.90;97.50;;;;;;4971692;28;21151;-72
2023/08/18 01:23:12;;;;;;;8.37;7.60;;;22.90;97.50;;;;;;4995336;28;20455;-72
2023/08/18 01:25:38;;;;;;;9.97;8.30;;;22.90;97.50;;;;;;4990806;28;21181;-72
2023/08/18 01:28:08;;;;;;;8.50;7.73;;;22.90;97.50;;;;;;5006597;28;20180;-72
2023/08/18 01:33:42;;;;;;;9.47;8.57;;;22.90;97.50;;;;;;4942240;28;20501;-69
2023/08/18 01:36:18;;;;;;;8.40;7.50;;;22.90;97.60;;;;;;4964812;28;20409;-69
2023/08/18 01:38:51;;;;;;;8.90;8.10;;;22.90;97.60;;;;;;4948661;28;20440;-69
2023/08/18 01:41:25;;;;;;;10.13;7.93;;;22.90;97.50;;;;;;4965627;28;20824;-69
2023/08/18 01:43:52;;;;;;;9.07;8.17;;;22.90;97.60;;;;;;4948509;28;20457;-69
2023/08/18 01:46:18;;;;;;;8.03;7.33;;;22.80;97.50;;;;;;4964281;28;20854;-69
2023/08/18 01:48:44;;;;;;;8.17;7.47;;;22.80;97.50;;;;;;4964483;28;20426;-68
2023/08/18 01:51:10;;;;;;;8.33;7.53;;;22.80;97.50;;;;;;4948192;28;21052;-69
2023/08/18 01:53:36;;;;;;;8.67;7.77;;;22.80;97.60;;;;;;4966346;28;20449;-69
2023/08/18 01:56:04;;;;;;;9.87;8.67;;;22.80;97.50;;;;;;4945003;28;20474;-69
2023/08/18 01:58:31;;;;;;;9.27;7.70;;;22.80;97.60;;;;;;4949708;28;20492;-69
2023/08/18 02:00:59;;;;;;;9.57;8.67;;;22.80;97.60;;;;;;4964912;28;20549;-69
2023/08/18 02:03:26;;;;;;;8.90;8.10;;;22.80;97.60;;;;;;4964606;28;21257;-69
2023/08/18 02:05:54;;;;;;;8.80;7.60;;;22.80;97.60;;;;;;4964720;28;20409;-69
2023/08/18 02:08:21;;;;;;;8.70;7.90;;;22.80;97.60;;;;;;4964460;28;20410;-69
2023/08/18 02:10:49;;;;;;;9.13;8.23;;;22.80;97.70;;;;;;4948555;28;20883;-69
2023/08/18 02:13:17;;;;;;;8.83;7.40;;;22.80;97.70;;;;;;4948492;28;20457;-68
2023/08/18 02:15:47;;;;;;;8.37;7.47;;;22.80;97.80;;;;;;4964850;28;20662;-69
2023/08/18 02:18:16;;;;;;;8.37;7.10;;;22.70;97.70;;;;;;4968481;28;21001;-69
2023/08/18 02:20:42;;;;;;;12.47;8.67;;;22.70;98.10;;;;;;4952077;28;21092;-69
2023/08/18 02:23:10;;;;;;;9.83;8.90;;;22.70;97.80;;;;;;4968744;28;20535;-69
2023/08/18 02:25:37;;;;;;;8.33;7.40;;;22.70;97.80;;;;;;4951942;28;20953;-68
2023/08/18 02:28:04;;;;;;;9.33;8.43;;;22.70;97.80;;;;;;4968508;28;20911;-69
2023/08/18 02:30:30;;;;;;;10.17;8.20;;;22.70;97.70;;;;;;4968359;28;20484;-69
2023/08/18 02:32:55;;;;;;;10.03;8.17;;;22.70;97.70;;;;;;4969216;28;20457;-69
2023/08/18 02:35:22;;;;;;;8.17;7.37;;;22.70;97.80;;;;;;4952018;28;20497;-69
2023/08/18 02:37:48;;;;;;;8.07;7.37;;;22.70;97.90;;;;;;4968232;28;20167;-68
2023/08/18 02:40:17;;;;;;;8.80;7.77;;;22.70;97.80;;;;;;4968216;28;20468;-69
2023/08/18 02:42:42;;;;;;;8.23;7.43;;;22.70;97.80;;;;;;4967992;28;20209;-69
2023/08/18 02:45:09;;;;;;;8.07;7.30;;;22.70;97.80;;;;;;4968975;28;20430;-69
2023/08/18 02:47:38;;;;;;;8.50;7.50;;;22.70;97.80;;;;;;4967549;28;20811;-69
2023/08/18 02:50:06;;;;;;;8.93;7.90;;;22.70;97.80;;;;;;4951434;28;20414;-69
2023/08/18 02:52:34;;;;;;;7.07;6.37;;;22.70;97.80;;;;;;4967047;28;20528;-69
2023/08/18 02:55:00;;;;;;;9.27;8.33;;;22.70;97.80;;;;;;4968509;28;20426;-69
2023/08/18 02:57:26;;;;;;;8.73;7.93;;;22.70;97.70;;;;;;4967110;28;20859;-69
2023/08/18 02:59:52;;;;;;;8.23;7.53;;;22.70;97.70;;;;;;4966996;28;20418;-69
2023/08/18 03:02:21;;;;;;;7.87;7.23;;;22.70;97.80;;;;;;4967019;28;20514;-69
2023/08/18 03:04:47;;;;;;;8.37;7.57;;;22.60;97.70;;;;;;4967418;28;20988;-68
2023/08/18 03:07:13;;;;;;;8.63;7.83;;;22.70;97.80;;;;;;4968674;28;20422;-69
2023/08/18 03:09:39;;;;;;;7.10;6.50;;;22.60;97.70;;;;;;4951649;28;20166;-69
2023/08/18 03:12:05;;;;;;;8.60;7.77;;;22.60;97.70;;;;;;4951876;28;20468;-69
2023/08/18 03:14:31;;;;;;;7.23;6.63;;;22.60;97.70;;;;;;4951881;28;20452;-69
2023/08/18 03:16:59;;;;;;;8.53;7.00;;;22.60;97.70;;;;;;4970137;28;20441;-69
2023/08/18 03:19:28;;;;;;;7.80;7.10;;;22.60;97.70;;;;;;4969687;28;20413;-69
2023/08/18 03:21:55;;;;;;;7.43;6.77;;;22.60;97.70;;;;;;4937211;28;21168;-69
2023/08/18 03:24:24;;;;;;;8.40;7.60;;;22.60;97.70;;;;;;4969662;28;20517;-69
2023/08/18 03:26:52;;;;;;;7.50;6.80;;;22.60;97.80;;;;;;4952376;28;20422;-69
2023/08/18 03:29:19;;;;;;;7.37;6.63;;;22.60;97.80;;;;;;4967842;28;21337;-69
2023/08/18 03:31:48;;;;;;;8.07;7.37;;;22.60;97.90;;;;;;4951097;28;20445;-69
2023/08/18 03:34:14;;;;;;;7.70;7.00;;;22.60;97.90;;;;;;4950961;28;21246;-69
2023/08/18 03:36:40;;;;;;;7.37;6.77;;;22.60;97.90;;;;;;4950746;28;20421;-69
2023/08/18 03:39:06;;;;;;;7.23;6.63;;;22.60;97.90;;;;;;4935076;28;20501;-69
2023/08/18 03:41:33;;;;;;;6.77;6.20;;;22.60;97.90;;;;;;4935028;28;20489;-70
2023/08/18 03:43:59;;;;;;;7.30;6.70;;;22.60;97.90;;;;;;4950943;28;20449;-69
2023/08/18 03:46:30;;;;;;;7.93;7.23;;;22.60;98.00;;;;;;4935200;28;20429;-69
2023/08/18 03:48:58;;;;;;;6.83;6.33;;;22.60;97.90;;;;;;4935772;28;20426;-70
2023/08/18 03:51:25;;;;;;;7.13;6.53;;;22.60;98.00;;;;;;4968488;28;20473;-69
2023/08/18 03:53:54;;;;;;;7.77;7.07;;;22.60;98.00;;;;;;4950983;28;20450;-69
2023/08/18 03:56:20;;;;;;;6.87;6.23;;;22.60;98.10;;;;;;4951390;28;20426;-68
2023/08/18 03:58:49;;;;;;;7.80;7.10;;;22.60;98.10;;;;;;4951725;28;20418;-69
2023/08/18 04:01:18;;;;;;;7.90;7.10;;;22.50;98.00;;;;;;4935692;28;20465;-75
2023/08/18 04:03:45;;;;;;;7.77;7.03;;;22.50;98.10;;;;;;4967156;28;21141;-72
2023/08/18 04:06:16;;;;;;;7.40;6.90;;;22.50;98.10;;;;;;4935646;28;20433;-72
2023/08/18 04:08:44;;;;;;;7.00;6.40;;;22.50;98.00;;;;;;4968216;28;20406;-72
2023/08/18 04:11:13;;;;;;;7.57;6.97;;;22.50;98.00;;;;;;4935069;28;20438;-72
2023/08/18 04:13:42;;;;;;;7.47;6.77;;;22.50;98.00;;;;;;4951211;28;20991;-72
2023/08/18 04:16:08;;;;;;;7.67;6.80;;;22.50;98.00;;;;;;4968116;28;20426;-72
2023/08/18 04:18:37;;;;;;;7.90;6.83;;;22.50;98.10;;;;;;4950496;28;20432;-71
2023/08/18 04:21:08;;;;;;;7.00;6.40;;;22.50;98.10;;;;;;4950145;28;20454;-72
2023/08/18 04:23:36;;;;;;;7.30;6.60;;;22.50;98.10;;;;;;4934229;28;21333;-72
2023/08/18 04:26:05;;;;;;;7.50;6.80;;;22.50;98.10;;;;;;4966019;28;20432;-72
2023/08/18 04:28:31;;;;;;;7.57;6.63;;;22.50;98.10;;;;;;4965896;28;21107;-72
2023/08/18 04:31:02;;;;;;;8.47;6.80;;;22.50;98.10;;;;;;4950180;28;20422;-72
2023/08/18 04:33:43;;;;;;;8.47;6.83;;;22.50;98.20;;;;;;4933712;28;20458;-72
2023/08/18 04:36:09;;;;;;;7.00;6.50;;;22.50;98.30;;;;;;4948951;28;20429;-72
2023/08/18 04:38:37;;;;;;;7.27;6.67;;;22.50;98.20;;;;;;4947853;28;20395;-73
2023/08/18 04:41:09;;;;;;;7.00;6.30;;;22.50;98.20;;;;;;4933149;28;20463;-72
2023/08/18 04:43:36;;;;;;;6.80;6.20;;;22.50;98.20;;;;;;4949592;28;21057;-72
2023/08/18 04:46:05;;;;;;;7.70;6.90;;;22.50;98.20;;;;;;4965075;28;20457;-71
2023/08/18 04:48:32;;;;;;;6.73;6.23;;;22.50;98.20;;;;;;4949279;28;20425;-71
2023/08/18 04:50:59;;;;;;;6.67;6.17;;;22.50;98.20;;;;;;4949097;28;20406;-71
2023/08/18 04:53:29;;;;;;;7.20;6.60;;;22.50;98.20;;;;;;4949430;28;20492;-71
2023/08/18 04:55:58;;;;;;;6.93;6.23;;;22.40;98.20;;;;;;4949373;28;20456;-71
2023/08/18 04:58:26;;;;;;;6.93;6.33;;;22.50;98.20;;;;;;4933767;28;20853;-71
2023/08/18 05:01:00;;;;;;;5.93;5.50;;;22.40;98.00;;;;;;4933720;28;20462;-71
2023/08/18 05:03:30;;;;;;;6.03;5.53;;;22.40;98.00;;;;;;4965324;28;20453;-71
2023/08/18 05:06:08;;;;;;;6.93;6.33;;;22.40;98.00;;;;;;4966041;28;20461;-71
2023/08/18 05:08:36;;;;;;;5.50;5.00;;;22.40;98.10;;;;;;4949230;28;20872;-72
2023/08/18 05:11:10;;;;;;;5.73;5.33;;;22.40;98.10;;;;;;4933359;28;20429;-71
2023/08/18 05:13:40;;;;;;;6.43;5.87;;;22.40;98.10;;;;;;4948801;28;20458;-73
2023/08/18 05:16:06;;;;;;;8.57;5.83;;;22.40;98.20;;;;;;4948862;28;20513;-72
2023/08/18 05:18:35;;;;;;;6.23;5.73;;;22.40;98.20;;;;;;4933138;28;20419;-72
2023/08/18 05:21:02;;;;;;;6.37;5.87;;;22.40;98.20;;;;;;4948558;28;20549;-71
2023/08/18 05:23:31;;;;;;;6.50;5.90;;;22.40;98.10;;;;;;4965864;28;20458;-71
2023/08/18 05:25:59;;;;;;;7.37;6.67;;;22.40;98.30;;;;;;4963942;28;20611;-72
2023/08/18 05:28:29;;;;;;;6.50;5.90;;;22.40;98.30;;;;;;4965731;28;20406;-73
2023/08/18 05:30:58;;;;;;;6.80;6.30;;;22.40;98.30;;;;;;4964636;28;20398;-73
2023/08/18 05:33:24;;;;;;;7.20;6.60;;;22.40;98.20;;;;;;4966012;28;20962;-72
2023/08/18 05:35:52;;;;;;;6.67;6.07;;;22.40;98.20;;;;;;4963986;28;20820;-71
2023/08/18 05:38:19;;;;;;;6.93;6.33;;;22.40;98.30;;;;;;4948154;28;20441;-72
2023/08/18 05:40:49;;;;;;;6.67;6.17;;;22.40;98.20;;;;;;4963258;28;20438;-72
2023/08/18 05:43:16;;;;;;;6.50;6.00;;;22.40;98.20;;;;;;4964858;28;20490;-72
2023/08/18 05:45:44;;;;;;;6.90;6.20;;;22.40;98.30;;;;;;4963687;28;20469;-71
2023/08/18 05:48:10;;;;;;;7.70;7.03;;;22.40;98.30;;;;;;4963473;28;20489;-71
2023/08/18 05:50:37;;;;;;;7.43;6.83;;;22.40;98.20;;;;;;4962587;28;20402;-71
2023/08/18 05:53:04;;;;;;;6.20;5.70;;;22.40;98.20;;;;;;4963238;28;20481;-71
2023/08/18 05:55:30;;;;;;;6.90;6.30;;;22.40;98.30;;;;;;4947432;28;20967;-71
2023/08/18 05:58:01;;;;;;;6.20;5.70;;;22.40;98.30;;;;;;4947759;28;20631;-71
2023/08/18 06:00:29;;;;;;;6.67;6.07;;;22.40;98.40;;;;;;4963663;28;20831;-71
2023/08/18 06:02:55;;;;;;;6.53;5.93;;;22.40;98.40;;;;;;4947561;28;20524;-71
2023/08/18 06:05:23;;;;;;;6.93;6.33;;;22.40;98.40;;;;;;4963594;28;20449;-71
2023/08/18 06:07:51;;;;;;;6.27;5.67;;;22.40;98.40;;;;;;4963100;28;20400;-71
2023/08/18 06:10:24;;;;;;;6.13;5.63;;;22.30;98.40;;;;;;4962854;28;21060;-72
2023/08/18 06:12:51;;;;;;;9.30;5.53;;;22.40;98.40;;;;;;4964703;28;20469;-71
2023/08/18 06:15:19;;;;;;;5.87;5.37;;;22.40;98.40;;;;;;4963313;28;20528;-71
2023/08/18 06:17:45;;;;;;;6.13;5.63;;;22.40;98.40;;;;;;4931647;28;20445;-72
2023/08/18 06:20:14;;;;;;;6.03;5.53;;;22.30;98.30;;;;;;4947501;28;20504;-72
2023/08/18 06:22:40;;;;;;;5.87;5.30;;;22.30;98.40;;;;;;4947712;28;20821;-72
2023/08/18 06:25:08;;;;;;;5.97;5.47;;;22.40;98.40;;;;;;4963491;28;20461;-73
2023/08/18 06:27:34;;;;;;;5.43;5.00;;;22.30;98.40;;;;;;4952079;28;20421;-75
2023/08/18 06:30:00;;;;;;;6.20;5.60;;;22.30;98.40;;;;;;4949583;28;20445;-74
2023/08/18 06:32:29;;;;;;;6.47;5.97;;;22.40;98.50;;;;;;4966422;28;20472;-73
2023/08/18 06:34:57;;;;;;;6.63;6.07;;;22.30;98.40;;;;;;4966623;28;20437;-74
2023/08/18 06:37:25;;;;;;;5.77;5.27;;;22.30;98.40;;;;;;4966842;28;20448;-72
2023/08/18 06:39:51;;;;;;;5.77;5.30;;;22.30;98.40;;;;;;4967678;28;20413;-74
2023/08/18 06:42:17;;;;;;;6.33;5.83;;;22.30;98.50;;;;;;4965618;28;20488;-73
2023/08/18 06:44:43;;;;;;;5.97;5.50;;;22.30;98.50;;;;;;4979073;28;20938;-70
2023/08/18 06:47:09;;;;;;;6.60;6.00;;;22.30;98.90;;;;;;4968303;28;21006;-71
2023/08/18 06:49:38;;;;;;;6.57;5.97;;;22.30;98.60;;;;;;4985713;28;20294;-72
2023/08/18 06:52:06;;;;;;;6.30;5.70;;;22.30;98.60;;;;;;4952642;28;20982;-72
2023/08/18 06:54:36;;;;;;;6.00;5.50;;;22.30;98.70;;;;;;4952075;28;20480;-73
2023/08/18 06:57:02;;;;;;;5.53;5.10;;;22.30;98.60;;;;;;4985247;28;20178;-73
2023/08/18 06:59:28;;;;;;;6.30;5.70;;;22.30;98.70;;;;;;4985643;28;20420;-73
2023/08/18 07:01:56;;;;;;;6.07;5.57;;;22.30;99.00;;;;;;4961199;28;20564;-71
2023/08/18 07:04:22;;;;;;;6.27;5.77;;;22.30;98.70;;;;;;4952282;28;20758;-71
2023/08/18 07:06:53;;;;;;;6.10;5.60;;;22.30;98.60;;;;;;4965529;28;20476;-71
2023/08/18 07:09:21;;;;;;;5.77;5.27;;;22.30;98.60;;;;;;4965085;28;20767;-72
2023/08/18 07:11:47;;;;;;;6.37;5.87;;;22.30;98.60;;;;;;4967196;28;21173;-71
2023/08/18 07:14:16;;;;;;;5.33;4.93;;;22.30;98.60;;;;;;4977323;28;20435;-70
2023/08/18 07:16:49;;;;;;;6.57;6.07;;;22.30;98.60;;;;;;4968303;28;20471;-71
2023/08/18 07:19:17;;;;;;;6.27;5.77;;;22.30;98.60;;;;;;4968247;28;20930;-71
2023/08/18 07:21:45;;;;;;;5.40;4.90;;;22.30;98.70;;;;;;4983872;28;20449;-71
2023/08/18 07:24:11;;;;;;;5.47;4.97;;;22.30;98.70;;;;;;4985770;28;20440;-70
2023/08/18 07:26:37;;;;;;;5.47;4.83;;;22.30;98.70;;;;;;4984346;28;20405;-70
2023/08/18 07:29:06;;;;;;;6.10;5.50;;;22.30;98.70;;;;;;4985933;28;20409;-70
2023/08/18 07:31:32;;;;;;;5.60;5.17;;;22.30;98.70;;;;;;4980465;28;20208;-71
2023/08/18 07:34:01;;;;;;;5.77;5.27;;;22.30;98.60;;;;;;4966488;28;20437;-71
2023/08/18 07:36:27;;;;;;;6.00;5.50;;;22.30;98.60;;;;;;4960063;28;20508;-71
2023/08/18 07:38:55;;;;;;;5.20;4.80;;;22.30;98.70;;;;;;4966317;28;21084;-71
2023/08/18 07:41:24;;;;;;;6.10;5.60;;;22.30;98.80;;;;;;4966871;28;20764;-70
2023/08/18 07:43:49;;;;;;;5.70;5.20;;;22.40;98.90;;;;;;4954870;28;21039;-71
2023/08/18 07:46:15;;;;;;;9.87;6.07;;;22.40;98.80;;;;;;4972227;28;20442;-71
2023/08/18 07:48:43;;;;;;;5.90;5.40;;;22.30;98.80;;;;;;4963960;28;20291;-70
2023/08/18 07:51:09;;;;;;;7.03;5.57;;;22.40;99.00;;;;;;4965482;28;20468;-71
2023/08/18 07:53:35;;;;;;;5.93;5.43;;;22.30;99.10;;;;;;4967369;28;20457;-70
2023/08/18 07:56:05;;;;;;;5.93;5.43;;;22.30;99.00;;;;;;4959849;28;20474;-71
2023/08/18 07:58:32;;;;;;;6.20;5.60;;;22.40;99.00;;;;;;4964382;28;20776;-71
2023/08/18 08:00:58;;;;;;;6.60;5.90;;;22.40;99.10;;;;;;4963162;28;20842;-71
2023/08/18 08:03:24;;;;;;;5.57;5.13;;;22.40;99.20;;;;;;4980109;28;20912;-71
2023/08/18 08:05:51;;;;;;;5.60;5.10;;;22.40;99.10;;;;;;4966201;28;20461;-71
2023/08/18 08:08:17;;;;;;;5.10;4.60;;;22.40;99.40;;;;;;4984972;28;20471;-71
2023/08/18 08:10:45;;;;;;;5.80;5.30;;;22.40;99.10;;;;;;4967608;28;20443;-71
2023/08/18 08:13:11;;;;;;;6.00;5.50;;;22.40;99.30;;;;;;4966066;28;20653;-71
2023/08/18 08:15:38;;;;;;;5.20;4.80;;;22.40;99.30;;;;;;4945859;28;20460;-71
2023/08/18 08:18:04;;;;;;;5.30;4.80;;;22.40;99.40;;;;;;4941342;28;20506;-70
2023/08/18 08:20:33;;;;;;;5.90;5.30;;;22.40;99.20;;;;;;4960548;28;20445;-71
2023/08/18 08:23:01;;;;;;;5.10;4.70;;;22.40;99.30;;;;;;4957240;28;20474;-71
2023/08/18 08:25:27;;;;;;;5.30;4.90;;;22.40;99.30;;;;;;4957393;28;20900;-71
2023/08/18 08:27:56;;;;;;;5.20;4.80;;;22.40;99.20;;;;;;4945487;28;20479;-71
2023/08/18 08:30:22;;;;;;;5.00;4.60;;;22.40;99.10;;;;;;4963637;28;20472;-71
2023/08/18 08:32:50;;;;;;;6.23;4.80;;;22.40;99.10;;;;;;4963815;28;20473;-71
2023/08/18 08:35:18;;;;;;;5.70;5.20;;;22.40;99.40;;;;;;4962027;28;20537;-71
2023/08/18 08:37:46;;;;;;;5.60;5.20;;;22.40;99.30;;;;;;4962923;28;20537;-71
2023/08/18 08:40:18;;;;;;;4.77;4.37;;;22.40;99.10;;;;;;4963737;28;20407;-70
2023/08/18 08:42:45;;;;;;;4.77;4.27;;;22.40;99.00;;;;;;4949853;28;20991;-69
2023/08/18 08:45:14;;;;;;;4.73;4.43;;;22.40;99.10;;;;;;4963713;28;20926;-70
2023/08/18 08:47:43;;;;;;;4.77;4.47;;;22.50;99.50;;;;;;4969360;28;20497;-70
2023/08/18 08:50:11;;;;;;;5.33;4.93;;;22.40;99.20;;;;;;4980321;28;20405;-70
2023/08/18 08:52:41;;;;;;;5.07;4.77;;;22.50;99.30;;;;;;4965327;28;20426;-70
2023/08/18 08:55:09;;;;;;;4.70;4.40;;;22.50;99.20;;;;;;4965271;28;20778;-70
2023/08/18 08:57:37;;;;;;;5.47;5.07;;;22.50;99.40;;;;;;4965621;28;20695;-69
2023/08/18 09:00:06;;;;;;;5.33;4.77;;;22.50;99.80;;;;;;4979849;28;20518;-69
2023/08/18 09:02:32;;;;;;;4.47;4.17;;;22.50;99.60;;;;;;4965772;28;20517;-69
2023/08/18 09:05:00;;;;;;;4.60;4.30;;;22.50;99.70;;;;;;4966320;28;20865;-74
2023/08/18 09:07:29;;;;;;;5.53;5.13;;;22.50;99.50;;;;;;4950154;28;20820;-69
2023/08/18 09:09:58;;;;;;;5.13;4.73;;;22.50;99.70;;;;;;4965828;28;20426;-72
2023/08/18 09:12:31;;;;;;;4.90;4.53;;;22.60;99.80;;;;;;4964087;28;20457;-73
2023/08/18 09:14:58;;;;;;;4.97;4.57;;;22.60;99.40;;;;;;4964166;28;20595;-74
2023/08/18 09:17:29;;;;;;;4.60;4.30;;;22.60;99.40;;;;;;4968849;28;20513;-74
2023/08/18 09:19:57;;;;;;;4.70;4.00;;;22.60;99.40;;;;;;4948009;28;20449;-72
2023/08/18 09:22:23;;;;;;;4.70;4.40;;;22.60;99.30;;;;;;4964017;28;20505;-74
2023/08/18 09:24:51;;;;;;;4.73;4.40;;;22.60;99.30;;;;;;4963963;28;20443;-74
2023/08/18 09:27:18;;;;;;;4.57;4.20;;;22.70;99.40;;;;;;4964892;28;20462;-73
2023/08/18 09:29:44;;;;;;;5.27;4.87;;;22.70;99.30;;;;;;4964326;28;20504;-74
2023/08/18 09:32:12;;;;;;;4.77;4.37;;;22.70;99.50;;;;;;4963412;28;20470;-74
2023/08/18 09:34:39;;;;;;;4.77;4.40;;;22.70;99.60;;;;;;4963343;28;21009;-74
2023/08/18 09:37:08;;;;;;;4.70;4.40;;;22.70;99.60;;;;;;4948167;28;20434;-73
2023/08/18 09:39:35;;;;;;;5.20;4.70;;;22.80;99.50;;;;;;4964464;28;20457;-74
2023/08/18 09:42:23;;;;;;;5.07;4.70;;;22.80;99.40;;;;;;4955051;28;20505;-76
2023/08/18 09:44:49;;;;;;;5.07;4.30;;;22.90;99.70;;;;;;4941374;28;20898;-76
2023/08/18 09:47:17;;;;;;;4.80;4.40;;;22.90;99.80;;;;;;4959446;28;20443;-77
2023/08/18 09:49:47;;;;;;;5.33;4.93;;;22.90;99.80;;;;;;4960071;28;20413;-74
2023/08/18 09:52:16;;;;;;;4.77;4.43;;;22.90;99.70;;;;;;4944956;28;20847;-74
2023/08/18 09:55:02;;;;;;;4.93;4.53;;;23.00;99.80;;;;;;4959764;28;20426;-74
2023/08/18 09:57:37;;;;;;;5.00;4.70;;;23.00;99.80;;;;;;4945410;29;20950;-73
2023/08/18 10:00:07;;;;;;;4.57;4.27;;;23.00;99.70;;;;;;4958903;28;20998;-73
2023/08/18 10:02:42;;;;;;;5.57;4.80;;;23.00;99.70;;;;;;4944350;28;21004;-73
2023/08/18 10:05:10;;;;;;;5.10;4.70;;;23.10;99.90;;;;;;4943673;28;21036;-73
2023/08/18 10:07:37;;;;;;;4.93;4.53;;;23.10;99.90;;;;;;4960106;28;20478;-74
2023/08/18 10:10:07;;;;;;;4.70;4.40;;;23.10;99.90;;;;;;4943685;29;20439;-74
2023/08/18 10:12:35;;;;;;;5.27;4.87;;;23.10;99.90;;;;;;4958832;28;20446;-74
2023/08/18 10:15:03;;;;;;;5.30;4.90;;;23.20;99.90;;;;;;4959650;28;20450;-74
2023/08/18 10:17:31;;;;;;;5.30;4.90;;;23.20;99.90;;;;;;4962621;28;20990;-73
2023/08/18 10:20:00;;;;;;;4.87;4.50;;;23.20;99.90;;;;;;4978370;28;20407;-74
2023/08/18 10:22:29;;;;;;;5.10;4.77;;;23.30;99.90;;;;;;4961335;28;20482;-73
2023/08/18 10:24:56;;;;;;;5.00;4.70;;;23.30;99.90;;;;;;4961943;28;20454;-73
2023/08/18 10:27:28;;;;;;;5.20;4.80;;;23.40;99.90;;;;;;4977894;28;20435;-74
2023/08/18 10:30:09;;;;;;;4.90;4.50;;;23.40;99.90;;;;;;4977592;28;20417;-74
2023/08/18 10:32:41;;;;;;;5.13;4.77;;;23.40;99.90;;;;;;4977499;28;20466;-74
2023/08/18 10:35:25;;;;;;;4.63;4.33;;;23.40;99.90;;;;;;4977988;28;20829;-74
2023/08/18 10:38:02;;;;;;;4.93;4.53;;;23.50;99.90;;;;;;4965252;28;20457;-73
2023/08/18 10:40:35;;;;;;;5.03;4.63;;;23.50;99.90;;;;;;4946289;28;20453;-71
2023/08/18 10:43:24;;;;;;;5.20;4.80;;;23.50;99.90;;;;;;4962753;28;20612;-71
2023/08/18 10:45:55;;;;;;;5.27;4.87;;;23.60;99.90;;;;;;4932490;28;20437;-71
2023/08/18 10:48:30;;;;;;;4.90;4.60;;;23.60;99.90;;;;;;4947416;28;20637;-71
2023/08/18 10:51:00;;;;;;;4.83;4.43;;;23.60;99.90;;;;;;4974615;28;20435;-71
2023/08/18 10:53:33;;;;;;;5.70;5.30;;;23.70;99.90;;;;;;4947601;28;20488;-70
2023/08/18 10:55:59;;;;;;;6.00;5.60;;;23.70;99.90;;;;;;4949003;28;20524;-71
2023/08/18 10:58:26;;;;;;;5.63;5.13;;;23.70;99.90;;;;;;4981788;28;20492;-71
2023/08/18 11:00:52;;;;;;;5.20;4.70;;;23.70;99.90;;;;;;4980825;28;20556;-70
2023/08/18 11:03:18;;;;;;;4.93;4.60;;;23.80;99.90;;;;;;4981237;28;20457;-71
2023/08/18 11:05:46;;;;;;;5.40;5.00;;;23.80;99.90;;;;;;4966129;28;21021;-71
2023/08/18 11:08:12;;;;;;;4.90;4.50;;;23.80;99.90;;;;;;4981053;28;20430;-70
2023/08/18 11:10:42;;;;;;;6.10;5.70;;;23.90;99.90;;;;;;4981473;28;20450;-71
2023/08/18 11:13:22;;;;;;;5.60;5.20;;;23.90;99.90;;;;;;4965406;28;20760;-71
2023/08/18 11:15:52;;;;;;;5.67;5.20;;;23.90;99.90;;;;;;4981500;28;20453;-71
2023/08/18 11:18:20;;;;;;;6.43;5.83;;;24.00;99.90;;;;;;4977052;28;20435;-72
2023/08/18 11:20:47;;;;;;;5.50;5.00;;;24.00;99.90;;;;;;4950901;28;20520;-71
2023/08/18 11:23:13;;;;;;;5.90;5.50;;;24.00;99.90;;;;;;4981557;28;20472;-72
2023/08/18 11:25:41;;;;;;;6.37;5.87;;;24.00;99.90;;;;;;4969014;28;20458;-72
2023/08/18 11:28:08;;;;;;;6.40;6.00;;;24.10;99.90;;;;;;4946159;28;20877;-73
2023/08/18 11:30:37;;;;;;;5.90;5.50;;;24.10;99.90;;;;;;4961281;28;20545;-71
2023/08/18 11:33:03;;;;;;;6.53;6.03;;;24.10;99.90;;;;;;4968686;28;20576;-70
2023/08/18 11:35:30;;;;;;;6.40;5.90;;;24.20;99.90;;;;;;4949907;28;20443;-70
2023/08/18 11:37:59;;;;;;;6.23;5.83;;;24.20;99.90;;;;;;4944336;28;20416;-70
2023/08/18 11:40:25;;;;;;;6.00;5.60;;;24.20;99.90;;;;;;4975221;28;21330;-70
2023/08/18 11:42:53;;;;;;;6.10;5.60;;;24.30;99.90;;;;;;4945497;28;20450;-70
2023/08/18 11:45:25;;;;;;;6.47;5.87;;;24.30;99.90;;;;;;4974458;28;20631;-69
2023/08/18 11:48:05;;;;;;;6.50;6.10;;;24.30;99.80;;;;;;4945835;28;20541;-70
2023/08/18 11:50:42;;;;;;;6.70;6.20;;;24.40;99.90;;;;;;4961346;28;20458;-70
2023/08/18 11:53:30;;;;;;;6.83;6.33;;;24.40;99.90;;;;;;4960868;28;20458;-70
2023/08/18 11:55:59;;;;;;;6.83;6.33;;;24.40;99.90;;;;;;4960853;28;20486;-70
2023/08/18 11:58:26;;;;;;;7.00;6.50;;;24.50;99.90;;;;;;4946418;28;20427;-71
2023/08/18 12:00:52;;;;;;;7.33;6.73;;;24.50;99.90;;;;;;4960738;28;20493;-70
2023/08/18 12:03:26;;;;;;;7.37;6.80;;;24.50;99.90;;;;;;4960064;28;20982;-70
2023/08/18 12:05:58;;;;;;;7.53;6.93;;;24.60;99.90;;;;;;4945962;29;20462;-71
2023/08/18 12:08:25;;;;;;;7.37;6.77;;;24.60;99.90;;;;;;4965613;28;20436;-71
2023/08/18 12:10:57;;;;;;;7.43;6.73;;;24.60;99.90;;;;;;4948585;28;20440;-70
2023/08/18 12:13:31;;;;;;;8.13;7.53;;;24.60;99.80;;;;;;4967711;28;20457;-70
2023/08/18 12:15:57;;;;;;;7.73;6.90;;;24.70;99.90;;;;;;4980789;28;20465;-70
2023/08/18 12:18:23;;;;;;;7.37;6.87;;;24.70;99.90;;;;;;4963985;28;20449;-70
2023/08/18 12:20:49;;;;;;;8.10;7.47;;;24.80;99.90;;;;;;4964188;28;21118;-70
2023/08/18 12:23:15;;;;;;;8.37;7.77;;;24.80;99.80;;;;;;4975536;28;20462;-71
2023/08/18 12:25:43;;;;;;;7.67;7.07;;;24.80;99.70;;;;;;4963665;28;20194;-70
2023/08/18 12:28:09;;;;;;;8.53;7.83;;;24.90;99.80;;;;;;4978148;28;20449;-70
2023/08/18 12:30:38;;;;;;;8.60;8.00;;;24.90;99.70;;;;;;4960494;28;20410;-70
2023/08/18 12:33:04;;;;;;;7.97;7.30;;;24.90;99.80;;;;;;4962700;28;20461;-70
2023/08/18 12:35:32;;;;;;;7.30;6.80;;;24.90;99.80;;;;;;4963219;28;20459;-70
2023/08/18 12:37:58;;;;;;;8.60;8.00;;;25.00;99.90;;;;;;4944608;28;20579;-70
2023/08/18 12:40:27;;;;;;;8.07;7.50;;;25.00;99.90;;;;;;4960366;28;20446;-70
2023/08/18 12:42:53;;;;;;;8.60;7.97;;;25.00;99.90;;;;;;4960560;28;20476;-70
2023/08/18 12:45:21;;;;;;;8.87;8.17;;;25.10;99.70;;;;;;4947526;28;20435;-70
2023/08/18 12:47:50;;;;;;;8.40;7.80;;;25.10;99.50;;;;;;4948309;28;20636;-70
2023/08/18 12:50:18;;;;;;;7.50;6.90;;;25.10;99.40;;;;;;4972424;28;20460;-70
2023/08/18 12:52:48;;;;;;;8.30;7.70;;;25.10;99.40;;;;;;4963375;28;20497;-70
2023/08/18 12:55:19;;;;;;;8.33;7.53;;;25.20;99.40;;;;;;4965624;28;20413;-70